createdAt,value
2022-12-28T00:01:21.454Z,2.80
2022-12-28T00:03:48.614Z,2.45
2022-12-28T00:06:15.444Z,2.47
2022-12-28T00:08:42.165Z,2.58
2022-12-28T00:11:20.320Z,2.10
2022-12-28T00:13:54.684Z,2.65
2022-12-28T00:16:25.993Z,3.00
2022-12-28T00:18:53.290Z,2.80
2022-12-28T00:21:19.854Z,2.63
2022-12-28T00:23:50.625Z,2.53
2022-12-28T00:26:17.280Z,3.05
2022-12-28T00:28:44.052Z,2.88
2022-12-28T00:31:10.777Z,2.92
2022-12-28T00:33:37.427Z,2.50
2022-12-28T00:36:05.081Z,2.65
2022-12-28T00:38:37.453Z,2.67
2022-12-28T00:41:06.604Z,2.92
2022-12-28T00:43:33.548Z,2.58
2022-12-28T00:46:00.387Z,2.00
2022-12-28T00:48:27.329Z,2.42
2022-12-28T00:51:01.857Z,2.97
2022-12-28T00:53:28.515Z,2.78
2022-12-28T00:55:55.143Z,2.58
2022-12-28T00:58:21.741Z,3.13
2022-12-28T01:00:49.188Z,2.53
2022-12-28T01:03:16.013Z,3.30
2022-12-28T01:05:42.599Z,2.50
2022-12-28T01:08:09.183Z,2.45
2022-12-28T01:10:38.295Z,2.25
2022-12-28T01:13:04.931Z,2.53
2022-12-28T01:15:31.544Z,2.88
2022-12-28T01:17:58.238Z,3.00
2022-12-28T01:20:26.736Z,2.47
2022-12-28T01:22:53.324Z,2.53
2022-12-28T01:25:22.643Z,2.85
2022-12-28T01:27:49.322Z,2.60
2022-12-28T01:30:16.081Z,3.05
2022-12-28T01:32:42.730Z,3.15
2022-12-28T01:35:09.561Z,2.63
2022-12-28T01:37:36.227Z,2.53
2022-12-28T01:40:03.045Z,2.42
2022-12-28T01:42:29.601Z,1.90
2022-12-28T01:44:56.162Z,2.63
2022-12-28T01:47:27.976Z,2.55
2022-12-28T01:50:19.776Z,1.92
2022-12-28T01:52:55.707Z,2.60
2022-12-28T01:55:27.578Z,2.00
2022-12-28T02:00:22.922Z,2.15
2022-12-28T02:02:55.012Z,3.17
2022-12-28T02:05:25.862Z,3.05
2022-12-28T02:07:57.719Z,2.63
2022-12-28T02:13:11.132Z,2.95
2022-12-28T02:15:37.726Z,1.85
2022-12-28T02:18:04.561Z,3.38
2022-12-28T02:20:44.407Z,1.70
2022-12-28T02:23:52.599Z,3.28
2022-12-28T02:26:43.870Z,2.05
2022-12-28T02:29:22.643Z,2.75
2022-12-28T02:32:05.039Z,2.65
2022-12-28T02:34:37.637Z,2.15
2022-12-28T02:37:13.225Z,2.58
2022-12-28T02:39:51.750Z,2.58
2022-12-28T02:42:20.789Z,1.92
2022-12-28T02:45:06.725Z,1.90
2022-12-28T02:47:51.850Z,2.03
2022-12-28T02:50:19.556Z,2.25
2022-12-28T02:53:27.232Z,2.47
2022-12-28T02:56:31.540Z,3.22
2022-12-28T02:59:15.516Z,2.40
2022-12-28T03:02:07.450Z,2.95
2022-12-28T03:07:58.837Z,1.60
2022-12-28T03:10:33.857Z,2.05
2022-12-28T03:13:33.879Z,2.30
2022-12-28T03:16:06.473Z,1.90
2022-12-28T03:18:54.013Z,2.30
2022-12-28T03:21:40.247Z,2.00
2022-12-28T03:24:30.880Z,2.00
2022-12-28T03:27:18.564Z,2.53
2022-12-28T03:30:23.109Z,2.50
2022-12-28T03:32:50.540Z,2.03
2022-12-28T03:35:20.798Z,1.95
2022-12-28T03:37:58.140Z,2.55
2022-12-28T03:40:40.044Z,2.30
2022-12-28T03:43:39.801Z,2.28
2022-12-28T03:46:20.693Z,2.13
2022-12-28T03:48:49.498Z,2.40
2022-12-28T03:51:20.404Z,1.90
2022-12-28T03:53:48.144Z,1.77
2022-12-28T03:56:21.494Z,2.00
2022-12-28T03:58:55.775Z,1.98
2022-12-28T04:01:25.653Z,2.10
2022-12-28T04:03:53.389Z,1.75
2022-12-28T04:06:20.539Z,1.90
2022-12-28T04:08:47.926Z,1.58
2022-12-28T04:11:14.952Z,1.42
2022-12-28T04:13:44.978Z,1.77
2022-12-28T04:16:14.488Z,1.58
2022-12-28T04:18:43.003Z,1.45
2022-12-28T04:21:11.826Z,1.55
2022-12-28T04:23:40.772Z,1.08
2022-12-28T04:26:19.902Z,1.00
2022-12-28T04:28:48.656Z,0.95
2022-12-28T04:31:24.458Z,1.10
2022-12-28T04:33:58.674Z,0.80
2022-12-28T04:36:25.923Z,1.13
2022-12-28T04:38:52.695Z,0.98
2022-12-28T04:41:19.421Z,1.10
2022-12-28T04:43:46.027Z,0.90
2022-12-28T04:46:14.919Z,0.60
2022-12-28T04:48:42.066Z,0.50
2022-12-28T04:51:21.103Z,0.50
2022-12-28T04:53:48.024Z,0.40
2022-12-28T04:56:15.817Z,0.60
2022-12-28T04:58:42.962Z,0.50
2022-12-28T05:01:12.815Z,0.75
2022-12-28T05:03:41.859Z,0.60
2022-12-28T05:06:12.541Z,0.50
2022-12-28T05:08:39.666Z,0.52
2022-12-28T05:11:08.933Z,0.50
2022-12-28T05:13:35.528Z,0.50
2022-12-28T05:16:04.163Z,0.40
2022-12-28T05:18:30.969Z,0.60
2022-12-28T05:21:08.685Z,0.55
2022-12-28T05:23:37.516Z,0.40
2022-12-28T05:26:05.215Z,0.32
2022-12-28T05:28:32.084Z,0.40
2022-12-28T05:31:01.184Z,0.40
2022-12-28T05:33:33.275Z,0.50
2022-12-28T05:36:04.768Z,0.50
2022-12-28T05:38:32.563Z,0.30
2022-12-28T05:41:11.155Z,0.35
2022-12-28T05:43:38.291Z,0.50
2022-12-28T05:46:07.419Z,0.30
2022-12-28T05:48:36.209Z,0.55
2022-12-28T05:51:06.277Z,0.60
2022-12-28T05:53:33.203Z,0.47
2022-12-28T05:56:14.246Z,0.45
2022-12-28T05:58:42.530Z,0.40
2022-12-28T06:01:16.313Z,0.40
2022-12-28T06:03:45.189Z,0.30
2022-12-28T06:06:14.193Z,0.43
2022-12-28T06:08:41.813Z,0.50
2022-12-28T06:11:10.983Z,0.52
2022-12-28T06:13:38.489Z,0.45
2022-12-28T06:16:09.620Z,0.43
2022-12-28T06:18:36.587Z,0.60
2022-12-28T06:21:17.326Z,0.32
2022-12-28T06:23:45.136Z,0.40
2022-12-28T06:26:17.133Z,0.40
2022-12-28T06:28:44.179Z,0.32
2022-12-28T06:31:13.475Z,0.40
2022-12-28T06:33:40.483Z,0.43
2022-12-28T06:36:20.676Z,0.50
2022-12-28T06:38:48.897Z,0.40
2022-12-28T06:41:17.413Z,0.38
2022-12-28T06:43:45.242Z,0.50
2022-12-28T06:46:13.439Z,0.40
2022-12-28T06:48:40.560Z,0.60
2022-12-28T06:51:14.307Z,0.60
2022-12-28T06:53:41.313Z,0.40
2022-12-28T06:56:11.902Z,0.77
2022-12-28T06:58:38.892Z,0.60
2022-12-28T07:01:08.252Z,0.93
2022-12-28T07:03:35.512Z,0.60
2022-12-28T07:06:03.423Z,0.60
2022-12-28T07:08:30.814Z,0.60
2022-12-28T07:11:06.265Z,0.43
2022-12-28T07:13:33.870Z,0.50
2022-12-28T07:16:06.647Z,0.93
2022-12-28T07:18:34.064Z,0.55
2022-12-28T07:21:18.722Z,0.85
2022-12-28T07:23:45.289Z,0.77
2022-12-28T07:26:15.687Z,1.10
2022-12-28T07:28:44.875Z,1.35
2022-12-28T07:31:14.202Z,1.48
2022-12-28T07:33:41.149Z,0.77
2022-12-28T07:36:10.267Z,0.50
2022-12-28T07:38:36.944Z,0.60
2022-12-28T07:41:12.214Z,0.63
2022-12-28T07:43:39.354Z,0.90
2022-12-28T07:46:07.424Z,0.75
2022-12-28T07:48:36.168Z,0.43
2022-12-28T07:51:22.059Z,0.68
2022-12-28T07:53:50.224Z,0.60
2022-12-28T07:56:18.334Z,0.63
2022-12-28T07:58:54.078Z,0.82
2022-12-28T08:01:22.749Z,0.60
2022-12-28T08:03:53.616Z,0.63
2022-12-28T08:06:23.065Z,0.90
2022-12-28T08:08:53.021Z,0.90
2022-12-28T08:11:23.536Z,2.03
2022-12-28T08:13:52.206Z,3.92
2022-12-28T08:16:20.769Z,1.98
2022-12-28T08:18:48.883Z,1.30
2022-12-28T08:21:28.268Z,2.08
2022-12-28T08:23:55.557Z,3.80
2022-12-28T08:26:36.683Z,3.03
2022-12-28T08:29:10.503Z,5.55
2022-12-28T08:31:40.608Z,4.57
2022-12-28T08:34:09.705Z,1.35
2022-12-28T08:36:36.572Z,1.00
2022-12-28T08:39:03.881Z,1.13
2022-12-28T08:41:31.002Z,3.35
2022-12-28T08:43:58.156Z,3.60
2022-12-28T08:46:30.487Z,2.88
2022-12-28T08:48:58.551Z,1.25
2022-12-28T08:51:46.533Z,0.88
2022-12-28T08:54:13.976Z,1.38
2022-12-28T08:56:42.678Z,0.70
2022-12-28T08:59:09.308Z,0.68
2022-12-28T09:01:43.815Z,0.40
2022-12-28T09:04:29.245Z,0.63
2022-12-28T09:06:55.790Z,0.80
2022-12-28T09:09:22.338Z,0.60
2022-12-28T09:11:49.706Z,0.57
2022-12-28T09:14:23.305Z,0.50
2022-12-28T09:16:54.316Z,0.50
2022-12-28T09:19:21.490Z,0.52
2022-12-28T09:21:49.161Z,0.52
2022-12-28T09:24:16.034Z,0.70
2022-12-28T09:26:42.629Z,0.63
2022-12-28T09:29:13.076Z,0.40
2022-12-28T09:31:41.282Z,0.85
2022-12-28T09:36:59.802Z,0.30
2022-12-28T09:39:26.484Z,0.43
2022-12-28T09:42:03.464Z,0.30
2022-12-28T09:44:48.286Z,0.20
2022-12-28T09:47:17.189Z,0.32
2022-12-28T09:50:06.606Z,0.47
2022-12-28T09:52:49.370Z,0.30
2022-12-28T09:55:18.120Z,0.40
2022-12-28T09:57:55.073Z,0.50
2022-12-28T10:00:24.756Z,0.50
2022-12-28T10:03:03.218Z,0.50
2022-12-28T10:05:30.212Z,0.47
2022-12-28T10:07:58.903Z,0.38
2022-12-28T10:10:27.088Z,0.40
2022-12-28T10:12:54.664Z,0.60
2022-12-28T10:15:23.125Z,0.60
2022-12-28T10:17:49.777Z,0.50
2022-12-28T10:20:19.167Z,0.40
2022-12-28T10:22:50.880Z,0.40
2022-12-28T10:25:21.185Z,0.70
2022-12-28T10:27:48.040Z,0.45
2022-12-28T10:30:18.101Z,0.50
2022-12-28T10:33:01.813Z,0.40
2022-12-28T10:35:54.949Z,0.40
2022-12-28T10:38:27.476Z,0.50
2022-12-28T10:41:07.188Z,0.35
2022-12-28T10:43:41.472Z,0.28
2022-12-28T10:46:20.516Z,0.40
2022-12-28T10:48:52.146Z,0.55
2022-12-28T10:51:22.214Z,0.30
2022-12-28T10:53:51.800Z,0.60
2022-12-28T10:56:23.311Z,0.32
2022-12-28T10:58:55.902Z,0.43
2022-12-28T11:01:28.617Z,0.45
2022-12-28T11:03:55.340Z,0.38
2022-12-28T11:06:28.972Z,0.50
2022-12-28T11:09:04.357Z,0.50
2022-12-28T11:11:31.054Z,0.50
2022-12-28T11:14:06.999Z,0.50
2022-12-28T11:16:37.650Z,0.20
2022-12-28T11:19:04.685Z,0.40
2022-12-28T11:21:33.404Z,0.30
2022-12-28T11:24:00.006Z,0.30
2022-12-28T11:26:28.846Z,0.25
2022-12-28T11:28:55.915Z,0.32
2022-12-28T11:31:31.190Z,0.40
2022-12-28T11:34:03.410Z,0.38
2022-12-28T11:36:32.019Z,0.20
2022-12-28T11:38:59.032Z,0.40
2022-12-28T11:41:31.810Z,0.40
2022-12-28T11:44:04.528Z,0.32
2022-12-28T11:46:31.101Z,0.20
2022-12-28T11:49:00.759Z,0.43
2022-12-28T11:51:35.185Z,0.40
2022-12-28T11:54:40.076Z,0.40
2022-12-28T11:57:08.118Z,0.28
2022-12-28T11:59:35.970Z,0.38
2022-12-28T12:02:24.175Z,0.30
2022-12-28T12:04:50.812Z,0.40
2022-12-28T12:07:24.739Z,0.30
2022-12-28T12:10:12.761Z,0.30
2022-12-28T12:12:48.572Z,0.20
2022-12-28T12:15:20.603Z,0.30
2022-12-28T12:17:50.087Z,0.73
2022-12-28T12:20:44.566Z,0.40
2022-12-28T12:23:29.239Z,0.30
2022-12-28T12:26:00.114Z,0.30
2022-12-28T12:28:38.413Z,0.30
2022-12-28T12:31:11.891Z,0.22
2022-12-28T12:33:44.387Z,0.30
2022-12-28T12:36:29.784Z,0.30
2022-12-28T12:39:25.845Z,0.20
2022-12-28T12:42:21.168Z,0.30
2022-12-28T12:45:02.974Z,0.30
2022-12-28T12:47:32.594Z,0.30
2022-12-28T12:50:41.224Z,0.22
2022-12-28T12:53:17.074Z,0.20
2022-12-28T12:55:52.521Z,0.20
2022-12-28T12:58:45.854Z,0.30
2022-12-28T13:01:42.093Z,0.50
2022-12-28T13:04:18.253Z,0.40
2022-12-28T13:06:44.908Z,0.32
2022-12-28T13:09:18.168Z,0.20
2022-12-28T13:11:45.983Z,0.90
2022-12-28T13:14:30.898Z,0.30
2022-12-28T13:16:59.631Z,0.82
2022-12-28T13:19:28.766Z,0.40
2022-12-28T13:21:57.872Z,0.65
2022-12-28T13:24:27.872Z,0.47
2022-12-28T13:26:57.015Z,0.40
2022-12-28T13:29:31.484Z,0.20
2022-12-28T13:31:58.240Z,0.40
2022-12-28T13:34:29.946Z,0.47
2022-12-28T13:37:02.044Z,0.55
2022-12-28T13:39:30.074Z,0.30
2022-12-28T13:42:00.249Z,0.57
2022-12-28T13:44:32.762Z,0.40
2022-12-28T13:47:09.277Z,0.80
2022-12-28T13:49:59.176Z,0.38
2022-12-28T13:53:04.839Z,0.73
2022-12-28T13:55:43.761Z,0.55
2022-12-28T13:58:18.982Z,0.60
2022-12-28T14:00:48.075Z,0.47
2022-12-28T14:03:15.957Z,0.50
2022-12-28T14:05:47.442Z,0.60
2022-12-28T14:10:42.475Z,0.85
2022-12-28T14:13:10.270Z,0.52
2022-12-28T14:15:41.454Z,0.80
2022-12-28T14:18:09.813Z,0.80
2022-12-28T14:20:54.091Z,0.60
2022-12-28T14:23:28.232Z,0.52
2022-12-28T14:25:58.069Z,0.80
2022-12-28T14:28:40.987Z,0.40
2022-12-28T14:31:09.305Z,0.50
2022-12-28T14:33:40.827Z,0.47
2022-12-28T14:38:40.489Z,0.55
2022-12-28T14:41:07.336Z,0.47
2022-12-28T14:43:36.066Z,0.40
2022-12-28T14:46:35.168Z,0.40
2022-12-28T14:49:31.232Z,0.50
2022-12-28T14:52:09.893Z,0.80
2022-12-28T14:54:46.341Z,0.65
2022-12-28T14:57:23.560Z,0.88
2022-12-28T14:59:58.831Z,0.50
2022-12-28T15:02:34.731Z,0.80
2022-12-28T15:05:02.300Z,0.98
2022-12-28T15:07:31.523Z,0.95
2022-12-28T15:09:58.112Z,0.90
2022-12-28T15:12:24.712Z,0.80
2022-12-28T15:14:51.485Z,1.23
2022-12-28T15:17:18.571Z,1.35
2022-12-28T15:19:45.716Z,0.90
2022-12-28T15:22:13.141Z,0.52
2022-12-28T15:24:41.582Z,2.30
2022-12-28T15:27:08.218Z,1.70
2022-12-28T15:32:21.450Z,1.00
2022-12-28T15:34:48.002Z,1.52
2022-12-28T15:37:14.559Z,1.45
2022-12-28T15:39:41.134Z,1.52
2022-12-28T15:42:07.891Z,0.95
2022-12-28T15:44:34.574Z,0.70
2022-12-28T15:47:01.215Z,0.70
2022-12-28T15:49:27.872Z,0.80
2022-12-28T15:51:54.423Z,0.80
2022-12-28T15:54:21.001Z,0.80
2022-12-28T15:56:54.872Z,1.00
2022-12-28T15:59:21.992Z,1.42
2022-12-28T16:01:48.661Z,1.08
2022-12-28T16:04:15.563Z,1.10
2022-12-28T16:06:45.054Z,0.90
2022-12-28T16:09:13.840Z,1.50
2022-12-28T16:11:41.402Z,1.40
2022-12-28T16:14:13.147Z,2.35
2022-12-28T16:19:08.815Z,2.03
2022-12-28T16:21:36.108Z,2.28
2022-12-28T16:24:02.834Z,2.55
2022-12-28T16:26:29.491Z,1.95
2022-12-28T16:28:57.617Z,1.60
2022-12-28T16:31:33.351Z,1.70
2022-12-28T16:34:28.193Z,1.80
2022-12-28T16:36:57.174Z,2.35
2022-12-28T16:39:24.074Z,5.60
2022-12-28T16:41:50.636Z,3.78
2022-12-28T16:44:20.089Z,6.47
2022-12-28T16:46:47.811Z,4.10
2022-12-28T16:49:14.761Z,2.28
2022-12-28T16:51:43.972Z,10.32
2022-12-28T16:54:15.883Z,6.05
2022-12-28T16:56:43.572Z,4.50
2022-12-28T16:59:14.296Z,3.00
2022-12-28T17:01:42.813Z,3.70
2022-12-28T17:04:10.597Z,6.00
2022-12-28T17:06:38.760Z,2.95
2022-12-28T17:09:05.571Z,3.00
2022-12-28T17:11:32.766Z,3.25
2022-12-28T17:14:03.771Z,3.13
2022-12-28T17:16:30.565Z,4.20
2022-12-28T17:18:57.363Z,3.45
2022-12-28T17:21:23.964Z,2.50
2022-12-28T17:23:50.594Z,2.10
2022-12-28T17:26:17.191Z,2.08
2022-12-28T17:28:43.863Z,2.33
2022-12-28T17:31:14.199Z,2.03
2022-12-28T17:33:45.975Z,1.58
2022-12-28T17:38:39.298Z,1.83
2022-12-28T17:41:16.042Z,1.55
2022-12-28T17:43:53.351Z,1.30
2022-12-28T17:46:20.833Z,1.65
2022-12-28T17:48:47.778Z,1.33
2022-12-28T17:51:14.871Z,1.20
2022-12-28T17:53:41.780Z,1.40
2022-12-28T17:56:12.648Z,0.75
2022-12-28T17:58:40.636Z,1.37
2022-12-28T18:01:07.813Z,1.23
2022-12-28T18:03:34.805Z,1.10
2022-12-28T18:06:01.430Z,1.17
2022-12-28T18:08:28.214Z,0.98
2022-12-28T18:10:55.253Z,1.20
2022-12-28T18:13:22.896Z,1.90
2022-12-28T18:15:49.975Z,2.35
2022-12-28T18:18:17.590Z,2.40
2022-12-28T18:20:44.399Z,2.65
2022-12-28T18:23:11.364Z,2.25
2022-12-28T18:25:38.260Z,1.67
2022-12-28T18:28:05.193Z,1.80
2022-12-28T18:30:31.917Z,1.63
2022-12-28T18:32:58.511Z,1.30
2022-12-28T18:35:26.763Z,2.47
2022-12-28T18:37:53.716Z,3.05
2022-12-28T18:40:20.436Z,4.05
2022-12-28T18:42:46.991Z,4.38
2022-12-28T18:45:13.538Z,5.05
2022-12-28T18:47:40.161Z,4.40
2022-12-28T18:50:07.349Z,3.80
2022-12-28T18:52:36.001Z,2.40
2022-12-28T18:55:03.800Z,7.47
2022-12-28T18:57:33.224Z,6.32
2022-12-28T18:59:59.805Z,2.17
2022-12-28T19:02:26.618Z,1.77
2022-12-28T19:04:53.443Z,2.40
2022-12-28T19:07:20.179Z,3.38
2022-12-28T19:10:12.011Z,1.92
2022-12-28T19:12:41.014Z,2.38
2022-12-28T19:15:08.173Z,2.22
2022-12-28T19:17:34.770Z,2.55
2022-12-28T19:20:01.514Z,2.95
2022-12-28T19:22:28.120Z,7.30
2022-12-28T19:24:54.656Z,4.57
2022-12-28T19:27:21.596Z,3.20
2022-12-28T19:29:50.487Z,2.08
2022-12-28T19:32:17.161Z,1.52
2022-12-28T19:34:43.741Z,1.50
2022-12-28T19:37:10.332Z,1.35
2022-12-28T19:39:37.008Z,1.23
2022-12-28T19:42:03.699Z,1.98
2022-12-28T19:44:30.314Z,1.63
2022-12-28T19:46:56.921Z,1.40
2022-12-28T19:49:23.651Z,1.63
2022-12-28T19:51:50.227Z,1.42
2022-12-28T19:54:16.808Z,2.40
2022-12-28T19:56:43.504Z,1.83
2022-12-28T19:59:10.139Z,1.45
2022-12-28T20:01:37.619Z,1.80
2022-12-28T20:04:12.793Z,0.90
2022-12-28T20:06:41.565Z,1.70
2022-12-28T20:09:08.161Z,2.63
2022-12-28T20:11:35.474Z,2.00
2022-12-28T20:14:03.243Z,4.18
2022-12-28T20:16:32.351Z,1.77
2022-12-28T20:19:01.508Z,2.72
2022-12-28T20:21:28.146Z,2.78
2022-12-28T20:23:55.009Z,2.80
2022-12-28T20:26:24.656Z,2.05
2022-12-28T20:28:51.562Z,2.80
2022-12-28T20:31:18.684Z,3.90
2022-12-28T20:33:46.412Z,2.15
2022-12-28T20:36:14.830Z,1.60
2022-12-28T20:38:41.815Z,1.98
2022-12-28T20:41:31.085Z,1.90
2022-12-28T20:43:58.865Z,1.95
2022-12-28T20:46:25.508Z,3.13
2022-12-28T20:48:52.148Z,2.55
2022-12-28T20:51:18.777Z,2.17
2022-12-28T20:53:45.391Z,2.08
2022-12-28T20:56:12.160Z,2.00
2022-12-28T20:58:39.448Z,2.42
2022-12-28T21:01:08.485Z,2.15
2022-12-28T21:03:35.471Z,2.40
2022-12-28T21:06:02.114Z,2.15
2022-12-28T21:08:30.995Z,2.13
2022-12-28T21:10:59.091Z,2.38
2022-12-28T21:13:26.541Z,1.33
2022-12-28T21:15:53.333Z,1.88
2022-12-28T21:18:20.579Z,2.30
2022-12-28T21:20:48.789Z,1.77
2022-12-28T21:23:16.327Z,1.70
2022-12-28T21:25:42.998Z,2.13
2022-12-28T21:28:10.102Z,1.77
2022-12-28T21:30:36.659Z,2.00
2022-12-28T21:33:03.876Z,2.00
2022-12-28T21:35:34.078Z,2.10
2022-12-28T21:38:01.776Z,1.90
2022-12-28T21:40:28.805Z,2.08
2022-12-28T21:42:55.451Z,3.60
2022-12-28T21:45:22.135Z,7.35
2022-12-28T21:47:48.709Z,3.13
2022-12-28T21:50:15.607Z,3.25
2022-12-28T21:52:42.198Z,2.60
2022-12-28T21:55:27.846Z,2.00
2022-12-28T21:57:54.490Z,1.60
2022-12-28T22:00:40.405Z,1.80
2022-12-28T22:03:25.576Z,2.00
2022-12-28T22:06:04.217Z,3.58
2022-12-28T22:08:50.915Z,2.42
2022-12-28T22:11:37.051Z,2.53
2022-12-28T22:14:04.780Z,2.13
2022-12-28T22:16:33.294Z,1.95
2022-12-28T22:19:02.528Z,1.85
2022-12-28T22:21:30.188Z,2.10
2022-12-28T22:23:56.749Z,2.13
2022-12-28T22:26:23.590Z,1.85
2022-12-28T22:28:50.242Z,2.20
2022-12-28T22:31:16.921Z,1.80
2022-12-28T22:33:43.622Z,1.60
2022-12-28T22:36:11.088Z,1.60
2022-12-28T22:38:37.862Z,1.65
2022-12-28T22:41:04.518Z,1.55
2022-12-28T22:43:31.107Z,1.85
2022-12-28T22:46:15.866Z,1.60
2022-12-28T22:48:42.464Z,1.83
2022-12-28T22:51:11.707Z,1.27
2022-12-28T22:53:38.624Z,1.50
2022-12-28T22:56:08.157Z,1.42
2022-12-28T22:58:35.036Z,2.38
2022-12-28T23:01:09.878Z,2.40
2022-12-28T23:03:44.090Z,1.30
2022-12-28T23:06:13.299Z,1.90
2022-12-28T23:08:40.197Z,1.40
2022-12-28T23:11:30.089Z,1.83
2022-12-28T23:14:19.254Z,4.60
2022-12-28T23:16:45.957Z,1.90
2022-12-28T23:19:31.682Z,1.50
2022-12-28T23:22:17.161Z,1.60
2022-12-28T23:25:02.587Z,1.10
2022-12-28T23:27:38.866Z,3.72
2022-12-28T23:30:09.637Z,2.47
2022-12-28T23:32:36.479Z,1.08
2022-12-28T23:35:03.961Z,1.45
2022-12-28T23:37:31.158Z,2.33
2022-12-28T23:39:57.739Z,2.42
2022-12-28T23:42:24.360Z,2.80
2022-12-28T23:44:53.606Z,1.30
2022-12-28T23:47:20.360Z,1.27
2022-12-28T23:49:47.007Z,1.60
2022-12-28T23:52:13.618Z,1.50
2022-12-28T23:54:40.179Z,1.00
2022-12-28T23:57:06.801Z,0.95
2022-12-28T23:59:33.416Z,0.85
